Anderson, Alaska
Current Conditions -  °F | °C
As of 6:53 AM on Saturday 25 Oct 2014 (Local Time) from PANN Reporting Station
Overcast Overcast  
Wind Chill: 25°   Ceiling: 1400
Heat Index: 25°   Visibility: 10mi
Dew Point: 22°   Wind: 0mph
Humidity: 88%   Direction: NA
Pressure: 29.97"   Gusts: NA
Location:  64.34°N, 149.19°W
Report Text: PANN 251453Z AUTO 00000KT 10SM OVC014 M04/M06 A2997 RMK AO2 SLP159 I3000 T10391056 55006 TSNO
Loading
Personal Weather Stations






























Interactive Weather Map
Tropical Storm Tracking
New forecast layout! Learn more

10-Day Weather Forecast

Advertisements
Track Severe Weather on mobile